sensor_id;sensor_type;location;lat;lon;timestamp;pressure;altitude;pressure_sealevel;temperature;humidity
12182;BME280;6154;51.550;12.138;2023-03-20T00:02:06;100555.97;;;15.74;57.97
12182;BME280;6154;51.550;12.138;2023-03-20T00:04:37;100560.47;;;15.73;57.85
12182;BME280;6154;51.550;12.138;2023-03-20T00:07:05;100561.41;;;15.72;57.60
12182;BME280;6154;51.550;12.138;2023-03-20T00:09:38;100554.59;;;15.68;57.36
12182;BME280;6154;51.550;12.138;2023-03-20T00:12:08;100559.31;;;15.65;56.94
12182;BME280;6154;51.550;12.138;2023-03-20T00:14:37;100555.25;;;15.59;56.75
12182;BME280;6154;51.550;12.138;2023-03-20T00:17:09;100558.28;;;15.55;56.58
12182;BME280;6154;51.550;12.138;2023-03-20T00:19:37;100550.59;;;15.50;56.88
12182;BME280;6154;51.550;12.138;2023-03-20T00:22:07;100544.88;;;15.43;56.66
12182;BME280;6154;51.550;12.138;2023-03-20T00:24:35;100551.38;;;15.39;56.49
12182;BME280;6154;51.550;12.138;2023-03-20T00:27:03;100550.03;;;15.34;56.58
12182;BME280;6154;51.550;12.138;2023-03-20T00:29:32;100548.66;;;15.28;56.57
12182;BME280;6154;51.550;12.138;2023-03-20T00:32:00;100549.19;;;15.20;56.58
12182;BME280;6154;51.550;12.138;2023-03-20T00:34:30;100548.81;;;15.14;56.37
12182;BME280;6154;51.550;12.138;2023-03-20T00:36:58;100547.41;;;15.08;56.45
12182;BME280;6154;51.550;12.138;2023-03-20T00:39:29;100553.81;;;15.06;56.33
12182;BME280;6154;51.550;12.138;2023-03-20T00:42:06;100547.97;;;15.01;56.25
12182;BME280;6154;51.550;12.138;2023-03-20T00:44:44;100553.81;;;14.93;56.31
12182;BME280;6154;51.550;12.138;2023-03-20T00:47:23;100544.38;;;14.89;56.42
12182;BME280;6154;51.550;12.138;2023-03-20T00:49:56;100549.25;;;14.82;56.64
12182;BME280;6154;51.550;12.138;2023-03-20T00:52:24;100555.66;;;14.80;56.77
12182;BME280;6154;51.550;12.138;2023-03-20T00:54:52;100548.75;;;14.77;56.90
12182;BME280;6154;51.550;12.138;2023-03-20T00:57:23;100551.41;;;14.77;56.90
12182;BME280;6154;51.550;12.138;2023-03-20T00:59:58;100553.13;;;14.78;56.98
12182;BME280;6154;51.550;12.138;2023-03-20T01:02:29;100547.56;;;14.81;57.08
12182;BME280;6154;51.550;12.138;2023-03-20T01:05:00;100551.00;;;14.83;56.93
12182;BME280;6154;51.550;12.138;2023-03-20T01:07:30;100550.78;;;14.86;56.88
12182;BME280;6154;51.550;12.138;2023-03-20T01:10:01;100555.66;;;14.92;56.78
12182;BME280;6154;51.550;12.138;2023-03-20T01:12:29;100548.19;;;14.98;56.68
12182;BME280;6154;51.550;12.138;2023-03-20T01:14:59;100556.69;;;15.03;56.58
12182;BME280;6154;51.550;12.138;2023-03-20T01:17:27;100546.69;;;15.06;56.53
12182;BME280;6154;51.550;12.138;2023-03-20T01:19:56;100544.63;;;15.10;56.56
12182;BME280;6154;51.550;12.138;2023-03-20T01:22:26;100546.34;;;15.11;56.71
12182;BME280;6154;51.550;12.138;2023-03-20T01:24:54;100541.84;;;15.11;56.71
12182;BME280;6154;51.550;12.138;2023-03-20T01:27:22;100547.94;;;15.13;56.78
12182;BME280;6154;51.550;12.138;2023-03-20T01:29:52;100548.81;;;15.14;56.74
12182;BME280;6154;51.550;12.138;2023-03-20T01:32:20;100555.84;;;15.15;56.97
12182;BME280;6154;51.550;12.138;2023-03-20T01:34:48;100556.56;;;15.17;57.19
12182;BME280;6154;51.550;12.138;2023-03-20T01:37:22;100550.28;;;15.18;57.22
12182;BME280;6154;51.550;12.138;2023-03-20T01:39:54;100561.56;;;15.21;57.31
12182;BME280;6154;51.550;12.138;2023-03-20T01:42:23;100557.94;;;15.22;57.86
12182;BME280;6154;51.550;12.138;2023-03-20T01:44:51;100555.19;;;15.24;57.51
12182;BME280;6154;51.550;12.138;2023-03-20T01:47:22;100565.84;;;15.24;57.38
12182;BME280;6154;51.550;12.138;2023-03-20T01:50:23;100565.00;;;15.23;57.30
12182;BME280;6154;51.550;12.138;2023-03-20T01:52:59;100571.19;;;15.24;57.76
12182;BME280;6154;51.550;12.138;2023-03-20T01:55:30;100562.03;;;15.15;57.21
12182;BME280;6154;51.550;12.138;2023-03-20T01:58:02;100565.97;;;15.10;57.07
12182;BME280;6154;51.550;12.138;2023-03-20T02:00:33;100575.16;;;15.06;56.92
12182;BME280;6154;51.550;12.138;2023-03-20T02:03:05;100562.03;;;15.03;56.95
12182;BME280;6154;51.550;12.138;2023-03-20T02:05:37;100562.25;;;15.00;57.26
12182;BME280;6154;51.550;12.138;2023-03-20T02:08:14;100560.78;;;14.95;57.00
12182;BME280;6154;51.550;12.138;2023-03-20T02:10:45;100561.75;;;14.94;57.03
12182;BME280;6154;51.550;12.138;2023-03-20T02:13:15;100557.56;;;14.90;56.95
12182;BME280;6154;51.550;12.138;2023-03-20T02:16:01;100564.22;;;14.85;56.82
12182;BME280;6154;51.550;12.138;2023-03-20T02:18:30;100561.22;;;14.77;57.32
12182;BME280;6154;51.550;12.138;2023-03-20T02:21:18;100568.78;;;14.70;56.79
12182;BME280;6154;51.550;12.138;2023-03-20T02:27:01;100562.16;;;14.63;57.27
12182;BME280;6154;51.550;12.138;2023-03-20T02:30:03;100562.00;;;14.53;57.35
12182;BME280;6154;51.550;12.138;2023-03-20T02:32:53;100565.91;;;14.48;57.96
12182;BME280;6154;51.550;12.138;2023-03-20T02:35:54;100566.28;;;14.42;57.51
12182;BME280;6154;51.550;12.138;2023-03-20T02:38:44;100575.56;;;14.36;57.68
12182;BME280;6154;51.550;12.138;2023-03-20T02:41:22;100556.50;;;14.29;57.68
12182;BME280;6154;51.550;12.138;2023-03-20T02:44:00;100568.31;;;14.25;57.32
12182;BME280;6154;51.550;12.138;2023-03-20T02:46:37;100566.81;;;14.21;57.60
12182;BME280;6154;51.550;12.138;2023-03-20T02:49:17;100555.31;;;14.21;57.75
12182;BME280;6154;51.550;12.138;2023-03-20T02:51:50;100556.94;;;14.23;58.17
12182;BME280;6154;51.550;12.138;2023-03-20T02:54:27;100558.63;;;14.24;57.95
12182;BME280;6154;51.550;12.138;2023-03-20T02:57:02;100554.91;;;14.27;58.15
12182;BME280;6154;51.550;12.138;2023-03-20T02:59:40;100559.59;;;14.23;57.59
12182;BME280;6154;51.550;12.138;2023-03-20T03:02:16;100557.97;;;14.21;57.95
12182;BME280;6154;51.550;12.138;2023-03-20T03:04:50;100555.63;;;14.16;57.79
12182;BME280;6154;51.550;12.138;2023-03-20T03:07:22;100564.34;;;14.18;58.01
12182;BME280;6154;51.550;12.138;2023-03-20T03:09:56;100556.16;;;14.21;58.19
12182;BME280;6154;51.550;12.138;2023-03-20T03:12:32;100555.00;;;14.25;58.41
12182;BME280;6154;51.550;12.138;2023-03-20T03:15:06;100561.19;;;14.26;59.02
12182;BME280;6154;51.550;12.138;2023-03-20T03:17:39;100561.50;;;14.34;58.63
12182;BME280;6154;51.550;12.138;2023-03-20T03:20:18;100565.53;;;14.39;58.62
12182;BME280;6154;51.550;12.138;2023-03-20T03:22:49;100567.91;;;14.44;58.53
12182;BME280;6154;51.550;12.138;2023-03-20T03:25:24;100572.19;;;14.47;58.31
12182;BME280;6154;51.550;12.138;2023-03-20T03:28:02;100576.56;;;14.48;58.24
12182;BME280;6154;51.550;12.138;2023-03-20T03:30:36;100570.16;;;14.50;58.55
12182;BME280;6154;51.550;12.138;2023-03-20T03:33:13;100574.00;;;14.46;58.14
12182;BME280;6154;51.550;12.138;2023-03-20T03:35:44;100577.41;;;14.48;58.17
12182;BME280;6154;51.550;12.138;2023-03-20T03:38:27;100576.34;;;14.51;58.64
12182;BME280;6154;51.550;12.138;2023-03-20T03:41:11;100577.62;;;14.58;59.40
12182;BME280;6154;51.550;12.138;2023-03-20T03:43:51;100580.19;;;14.59;59.16
12182;BME280;6154;51.550;12.138;2023-03-20T03:46:25;100585.22;;;14.64;58.66
12182;BME280;6154;51.550;12.138;2023-03-20T03:49:01;100585.09;;;14.65;58.79
12182;BME280;6154;51.550;12.138;2023-03-20T03:51:35;100593.72;;;14.69;58.38
12182;BME280;6154;51.550;12.138;2023-03-20T03:54:10;100588.16;;;14.72;58.34
12182;BME280;6154;51.550;12.138;2023-03-20T03:56:43;100589.03;;;14.73;58.73
12182;BME280;6154;51.550;12.138;2023-03-20T03:59:21;100589.78;;;14.75;58.91
12182;BME280;6154;51.550;12.138;2023-03-20T04:01:51;100587.88;;;14.77;58.65
12182;BME280;6154;51.550;12.138;2023-03-20T04:04:24;100589.69;;;14.76;58.78
12182;BME280;6154;51.550;12.138;2023-03-20T04:06:53;100590.75;;;14.74;59.27
12182;BME280;6154;51.550;12.138;2023-03-20T04:09:25;100594.91;;;14.78;58.67
12182;BME280;6154;51.550;12.138;2023-03-20T04:11:56;100589.34;;;14.81;58.68
12182;BME280;6154;51.550;12.138;2023-03-20T04:14:26;100590.19;;;14.81;58.72
12182;BME280;6154;51.550;12.138;2023-03-20T04:16:55;100594.56;;;14.82;58.87
12182;BME280;6154;51.550;12.138;2023-03-20T04:19:31;100593.50;;;14.85;58.75
12182;BME280;6154;51.550;12.138;2023-03-20T04:22:00;100600.44;;;14.87;58.86
12182;BME280;6154;51.550;12.138;2023-03-20T04:24:29;100595.97;;;14.88;59.03
12182;BME280;6154;51.550;12.138;2023-03-20T04:26:59;100603.84;;;14.89;58.97
12182;BME280;6154;51.550;12.138;2023-03-20T04:29:27;100607.47;;;14.88;59.25
12182;BME280;6154;51.550;12.138;2023-03-20T04:31:56;100606.37;;;14.91;59.07
12182;BME280;6154;51.550;12.138;2023-03-20T04:34:24;100613.53;;;14.90;59.22
12182;BME280;6154;51.550;12.138;2023-03-20T04:36:53;100608.75;;;14.95;59.08
12182;BME280;6154;51.550;12.138;2023-03-20T04:39:23;100614.94;;;14.96;59.45
12182;BME280;6154;51.550;12.138;2023-03-20T04:41:53;100618.34;;;14.98;59.27
12182;BME280;6154;51.550;12.138;2023-03-20T04:44:23;100620.44;;;14.93;59.86
12182;BME280;6154;51.550;12.138;2023-03-20T04:46:52;100614.59;;;15.01;59.00
12182;BME280;6154;51.550;12.138;2023-03-20T04:49:21;100615.78;;;14.97;59.71
12182;BME280;6154;51.550;12.138;2023-03-20T04:51:51;100622.41;;;15.04;59.53
12182;BME280;6154;51.550;12.138;2023-03-20T04:54:22;100616.22;;;15.03;59.61
12182;BME280;6154;51.550;12.138;2023-03-20T04:56:54;100623.31;;;15.03;60.03
12182;BME280;6154;51.550;12.138;2023-03-20T04:59:25;100622.06;;;15.08;59.53
12182;BME280;6154;51.550;12.138;2023-03-20T05:01:55;100626.19;;;15.12;59.58
12182;BME280;6154;51.550;12.138;2023-03-20T05:04:24;100628.78;;;15.14;59.87
12182;BME280;6154;51.550;12.138;2023-03-20T05:06:54;100631.09;;;15.18;59.42
12182;BME280;6154;51.550;12.138;2023-03-20T05:09:25;100631.00;;;15.20;59.18
12182;BME280;6154;51.550;12.138;2023-03-20T05:11:56;100623.53;;;15.25;58.68
12182;BME280;6154;51.550;12.138;2023-03-20T05:14:30;100625.97;;;15.28;58.48
12182;BME280;6154;51.550;12.138;2023-03-20T05:17:01;100624.78;;;15.32;58.54
12182;BME280;6154;51.550;12.138;2023-03-20T05:19:30;100625.53;;;15.34;58.48
12182;BME280;6154;51.550;12.138;2023-03-20T05:21:59;100631.62;;;15.36;58.38
12182;BME280;6154;51.550;12.138;2023-03-20T05:24:29;100641.31;;;15.37;58.37
12182;BME280;6154;51.550;12.138;2023-03-20T05:26:59;100634.28;;;15.36;58.71
12182;BME280;6154;51.550;12.138;2023-03-20T05:29:31;100638.75;;;15.36;58.91
12182;BME280;6154;51.550;12.138;2023-03-20T05:32:03;100644.22;;;15.34;59.13
12182;BME280;6154;51.550;12.138;2023-03-20T05:34:37;100646.59;;;15.13;60.87
12182;BME280;6154;51.550;12.138;2023-03-20T05:37:07;100646.03;;;15.21;60.58
12182;BME280;6154;51.550;12.138;2023-03-20T05:39:36;100647.31;;;15.28;59.94
12182;BME280;6154;51.550;12.138;2023-03-20T05:42:07;100646.09;;;15.32;59.55
12182;BME280;6154;51.550;12.138;2023-03-20T05:44:38;100655.62;;;15.36;60.05
12182;BME280;6154;51.550;12.138;2023-03-20T05:47:07;100656.78;;;15.32;60.91
12182;BME280;6154;51.550;12.138;2023-03-20T05:49:36;100663.06;;;15.31;61.91
12182;BME280;6154;51.550;12.138;2023-03-20T05:52:04;100662.22;;;15.43;61.63
12182;BME280;6154;51.550;12.138;2023-03-20T05:54:34;100652.81;;;15.50;62.00
12182;BME280;6154;51.550;12.138;2023-03-20T05:57:02;100657.09;;;15.66;61.13
12182;BME280;6154;51.550;12.138;2023-03-20T05:59:31;100657.81;;;15.68;61.03
12182;BME280;6154;51.550;12.138;2023-03-20T06:02:01;100659.94;;;15.75;61.33
12182;BME280;6154;51.550;12.138;2023-03-20T06:04:29;100670.72;;;15.74;61.96
12182;BME280;6154;51.550;12.138;2023-03-20T06:06:58;100662.91;;;15.71;62.75
12182;BME280;6154;51.550;12.138;2023-03-20T06:09:27;100664.72;;;15.70;63.15
12182;BME280;6154;51.550;12.138;2023-03-20T06:11:55;100667.34;;;15.83;62.63
12182;BME280;6154;51.550;12.138;2023-03-20T06:14:24;100666.63;;;15.81;62.80
12182;BME280;6154;51.550;12.138;2023-03-20T06:16:52;100679.94;;;15.44;65.60
12182;BME280;6154;51.550;12.138;2023-03-20T06:19:23;100674.81;;;15.91;62.38
12182;BME280;6154;51.550;12.138;2023-03-20T06:21:51;100668.00;;;15.87;63.05
12182;BME280;6154;51.550;12.138;2023-03-20T06:24:19;100670.06;;;15.70;64.40
12182;BME280;6154;51.550;12.138;2023-03-20T06:26:48;100672.44;;;15.75;64.38
12182;BME280;6154;51.550;12.138;2023-03-20T06:29:17;100671.63;;;15.86;63.26
12182;BME280;6154;51.550;12.138;2023-03-20T06:31:46;100679.00;;;15.82;63.59
12182;BME280;6154;51.550;12.138;2023-03-20T06:34:15;100687.78;;;15.84;63.81
12182;BME280;6154;51.550;12.138;2023-03-20T06:36:44;100685.03;;;15.97;63.47
12182;BME280;6154;51.550;12.138;2023-03-20T06:39:13;100685.22;;;16.06;63.05
12182;BME280;6154;51.550;12.138;2023-03-20T06:41:42;100685.34;;;16.05;63.28
12182;BME280;6154;51.550;12.138;2023-03-20T06:44:10;100685.53;;;16.02;63.46
12182;BME280;6154;51.550;12.138;2023-03-20T06:46:42;100695.22;;;16.16;62.95
12182;BME280;6154;51.550;12.138;2023-03-20T06:49:11;100694.87;;;16.20;62.66
12182;BME280;6154;51.550;12.138;2023-03-20T06:51:40;100700.34;;;16.19;63.41
12182;BME280;6154;51.550;12.138;2023-03-20T06:54:10;100699.78;;;16.26;62.35
12182;BME280;6154;51.550;12.138;2023-03-20T06:56:40;100694.59;;;16.36;61.99
12182;BME280;6154;51.550;12.138;2023-03-20T06:59:09;100703.59;;;16.35;62.44
12182;BME280;6154;51.550;12.138;2023-03-20T07:01:38;100707.59;;;16.41;62.20
12182;BME280;6154;51.550;12.138;2023-03-20T07:04:07;100704.72;;;16.44;62.17
12182;BME280;6154;51.550;12.138;2023-03-20T07:06:35;100698.56;;;16.54;61.62
12182;BME280;6154;51.550;12.138;2023-03-20T07:09:04;100705.37;;;16.58;61.88
12182;BME280;6154;51.550;12.138;2023-03-20T07:11:34;100707.53;;;16.53;61.98
12182;BME280;6154;51.550;12.138;2023-03-20T07:14:02;100705.75;;;16.65;61.54
12182;BME280;6154;51.550;12.138;2023-03-20T07:16:32;100710.19;;;16.53;62.48
12182;BME280;6154;51.550;12.138;2023-03-20T07:19:01;100712.69;;;16.67;61.40
12182;BME280;6154;51.550;12.138;2023-03-20T07:21:32;100713.56;;;16.68;61.67
12182;BME280;6154;51.550;12.138;2023-03-20T07:24:01;100715.56;;;16.77;61.47
12182;BME280;6154;51.550;12.138;2023-03-20T07:26:30;100712.06;;;16.88;61.12
12182;BME280;6154;51.550;12.138;2023-03-20T07:29:00;100717.03;;;16.92;61.04
12182;BME280;6154;51.550;12.138;2023-03-20T07:31:28;100722.63;;;16.89;61.26
12182;BME280;6154;51.550;12.138;2023-03-20T07:33:58;100729.22;;;16.97;60.95
12182;BME280;6154;51.550;12.138;2023-03-20T07:36:27;100727.25;;;16.99;60.91
12182;BME280;6154;51.550;12.138;2023-03-20T07:38:55;100733.00;;;17.05;60.62
12182;BME280;6154;51.550;12.138;2023-03-20T07:41:24;100733.03;;;17.16;60.43
12182;BME280;6154;51.550;12.138;2023-03-20T07:43:52;100728.66;;;17.27;60.57
12182;BME280;6154;51.550;12.138;2023-03-20T07:46:24;100739.84;;;17.32;60.81
12182;BME280;6154;51.550;12.138;2023-03-20T07:48:53;100734.50;;;17.43;60.24
12182;BME280;6154;51.550;12.138;2023-03-20T07:51:22;100733.03;;;17.50;60.05
12182;BME280;6154;51.550;12.138;2023-03-20T07:53:50;100725.37;;;17.57;60.04
12182;BME280;6154;51.550;12.138;2023-03-20T07:56:20;100730.66;;;17.69;60.20
12182;BME280;6154;51.550;12.138;2023-03-20T07:58:49;100728.81;;;17.81;60.11
12182;BME280;6154;51.550;12.138;2023-03-20T08:01:17;100731.47;;;17.81;60.06
12182;BME280;6154;51.550;12.138;2023-03-20T08:03:47;100727.72;;;17.95;59.95
12182;BME280;6154;51.550;12.138;2023-03-20T08:06:15;100729.28;;;17.97;59.85
12182;BME280;6154;51.550;12.138;2023-03-20T08:08:43;100742.06;;;18.05;59.38
12182;BME280;6154;51.550;12.138;2023-03-20T08:11:12;100733.62;;;18.09;59.28
12182;BME280;6154;51.550;12.138;2023-03-20T08:13:40;100738.16;;;17.98;59.28
12182;BME280;6154;51.550;12.138;2023-03-20T08:16:08;100733.53;;;18.00;58.94
12182;BME280;6154;51.550;12.138;2023-03-20T08:18:36;100735.22;;;18.01;59.06
12182;BME280;6154;51.550;12.138;2023-03-20T08:21:06;100736.50;;;17.74;59.28
12182;BME280;6154;51.550;12.138;2023-03-20T08:23:34;100737.91;;;17.67;59.40
12182;BME280;6154;51.550;12.138;2023-03-20T08:26:03;100738.91;;;17.66;59.33
12182;BME280;6154;51.550;12.138;2023-03-20T08:28:31;100741.22;;;17.71;59.29
12182;BME280;6154;51.550;12.138;2023-03-20T08:31:13;100744.03;;;17.80;59.25
12182;BME280;6154;51.550;12.138;2023-03-20T08:33:41;100738.41;;;17.84;59.20
12182;BME280;6154;51.550;12.138;2023-03-20T08:36:11;100741.19;;;17.93;59.23
12182;BME280;6154;51.550;12.138;2023-03-20T08:38:41;100743.09;;;18.14;59.03
12182;BME280;6154;51.550;12.138;2023-03-20T08:41:09;100741.94;;;18.06;59.01
12182;BME280;6154;51.550;12.138;2023-03-20T08:43:37;100759.97;;;18.04;58.69
12182;BME280;6154;51.550;12.138;2023-03-20T08:46:06;100761.03;;;18.02;58.68
12182;BME280;6154;51.550;12.138;2023-03-20T08:48:34;100763.38;;;17.95;58.33
12182;BME280;6154;51.550;12.138;2023-03-20T08:51:03;100761.06;;;17.91;58.41
12182;BME280;6154;51.550;12.138;2023-03-20T08:53:33;100769.22;;;17.78;58.61
12182;BME280;6154;51.550;12.138;2023-03-20T08:56:01;100762.28;;;17.75;58.47
12182;BME280;6154;51.550;12.138;2023-03-20T08:58:29;100765.81;;;17.76;58.52
12182;BME280;6154;51.550;12.138;2023-03-20T09:01:02;100772.28;;;17.85;58.32
12182;BME280;6154;51.550;12.138;2023-03-20T09:03:31;100766.66;;;17.88;58.48
12182;BME280;6154;51.550;12.138;2023-03-20T09:05:59;100769.94;;;17.91;58.50
12182;BME280;6154;51.550;12.138;2023-03-20T09:08:28;100766.78;;;17.97;58.54
12182;BME280;6154;51.550;12.138;2023-03-20T09:10:59;100768.94;;;18.03;58.38
12182;BME280;6154;51.550;12.138;2023-03-20T09:13:27;100768.31;;;18.11;58.24
12182;BME280;6154;51.550;12.138;2023-03-20T09:15:55;100772.97;;;18.09;58.22
12182;BME280;6154;51.550;12.138;2023-03-20T09:18:24;100774.31;;;18.15;58.18
12182;BME280;6154;51.550;12.138;2023-03-20T09:20:52;100774.53;;;18.12;58.08
12182;BME280;6154;51.550;12.138;2023-03-20T09:23:22;100776.84;;;18.16;57.85
12182;BME280;6154;51.550;12.138;2023-03-20T09:25:50;100772.09;;;18.20;57.92
12182;BME280;6154;51.550;12.138;2023-03-20T09:28:20;100782.81;;;18.20;57.69
12182;BME280;6154;51.550;12.138;2023-03-20T09:30:48;100773.78;;;18.21;57.51
12182;BME280;6154;51.550;12.138;2023-03-20T09:33:16;100780.97;;;18.20;57.45
12182;BME280;6154;51.550;12.138;2023-03-20T09:35:45;100787.56;;;18.16;57.40
12182;BME280;6154;51.550;12.138;2023-03-20T09:38:13;100790.25;;;18.16;57.37
12182;BME280;6154;51.550;12.138;2023-03-20T09:40:49;100788.41;;;18.17;57.34
12182;BME280;6154;51.550;12.138;2023-03-20T09:43:31;100787.47;;;17.95;57.60
12182;BME280;6154;51.550;12.138;2023-03-20T09:46:10;100792.72;;;17.97;57.65
12182;BME280;6154;51.550;12.138;2023-03-20T09:48:45;100796.84;;;17.90;57.68
12182;BME280;6154;51.550;12.138;2023-03-20T09:51:24;100791.97;;;17.84;57.76
12182;BME280;6154;51.550;12.138;2023-03-20T09:53:55;100797.94;;;17.87;57.92
12182;BME280;6154;51.550;12.138;2023-03-20T09:56:28;100792.84;;;17.84;57.86
12182;BME280;6154;51.550;12.138;2023-03-20T09:59:04;100791.00;;;17.85;57.75
12182;BME280;6154;51.550;12.138;2023-03-20T10:01:41;100782.97;;;17.85;57.87
12182;BME280;6154;51.550;12.138;2023-03-20T10:04:11;100790.25;;;17.83;57.79
12182;BME280;6154;51.550;12.138;2023-03-20T10:06:40;100787.59;;;17.83;57.77
12182;BME280;6154;51.550;12.138;2023-03-20T10:09:15;100789.41;;;17.82;57.79
12182;BME280;6154;51.550;12.138;2023-03-20T10:11:58;100789.06;;;17.87;57.89
12182;BME280;6154;51.550;12.138;2023-03-20T10:14:38;100786.00;;;17.80;57.85
12182;BME280;6154;51.550;12.138;2023-03-20T10:17:20;100782.59;;;17.78;57.38
12182;BME280;6154;51.550;12.138;2023-03-20T10:19:56;100784.56;;;17.76;57.25
12182;BME280;6154;51.550;12.138;2023-03-20T10:22:28;100784.31;;;17.79;57.18
12182;BME280;6154;51.550;12.138;2023-03-20T10:25:03;100790.91;;;17.75;57.07
12182;BME280;6154;51.550;12.138;2023-03-20T10:27:39;100792.94;;;17.71;57.13
12182;BME280;6154;51.550;12.138;2023-03-20T10:30:22;100785.03;;;17.70;56.98
12182;BME280;6154;51.550;12.138;2023-03-20T10:33:00;100778.41;;;17.63;56.87
12182;BME280;6154;51.550;12.138;2023-03-20T10:35:37;100763.97;;;17.65;57.10
12182;BME280;6154;51.550;12.138;2023-03-20T10:38:16;100771.75;;;17.68;57.03
12182;BME280;6154;51.550;12.138;2023-03-20T10:40:51;100773.69;;;17.66;57.00
12182;BME280;6154;51.550;12.138;2023-03-20T10:43:23;100777.56;;;17.62;57.04
12182;BME280;6154;51.550;12.138;2023-03-20T10:45:59;100775.91;;;17.72;56.92
12182;BME280;6154;51.550;12.138;2023-03-20T10:48:31;100772.25;;;17.96;57.24
12182;BME280;6154;51.550;12.138;2023-03-20T10:51:01;100775.03;;;18.17;57.42
12182;BME280;6154;51.550;12.138;2023-03-20T10:53:34;100766.34;;;18.35;57.16
12182;BME280;6154;51.550;12.138;2023-03-20T10:56:06;100770.59;;;18.38;56.86
12182;BME280;6154;51.550;12.138;2023-03-20T10:58:38;100767.53;;;18.43;57.01
12182;BME280;6154;51.550;12.138;2023-03-20T11:01:08;100776.31;;;18.45;56.66
12182;BME280;6154;51.550;12.138;2023-03-20T11:03:36;100777.16;;;18.45;56.33
12182;BME280;6154;51.550;12.138;2023-03-20T11:06:13;100767.16;;;18.47;56.11
12182;BME280;6154;51.550;12.138;2023-03-20T11:08:47;100772.66;;;18.46;56.18
12182;BME280;6154;51.550;12.138;2023-03-20T11:11:21;100776.53;;;18.42;56.20
12182;BME280;6154;51.550;12.138;2023-03-20T11:13:50;100774.97;;;18.39;56.28
12182;BME280;6154;51.550;12.138;2023-03-20T11:16:22;100775.81;;;18.39;56.56
12182;BME280;6154;51.550;12.138;2023-03-20T11:18:52;100774.97;;;18.39;56.54
12182;BME280;6154;51.550;12.138;2023-03-20T11:21:22;100773.41;;;18.36;56.53
12182;BME280;6154;51.550;12.138;2023-03-20T11:23:52;100771.47;;;18.27;56.32
12182;BME280;6154;51.550;12.138;2023-03-20T11:26:32;100766.25;;;18.26;56.53
12182;BME280;6154;51.550;12.138;2023-03-20T11:29:04;100766.09;;;18.38;57.21
12182;BME280;6154;51.550;12.138;2023-03-20T11:31:36;100767.47;;;18.54;57.20
12182;BME280;6154;51.550;12.138;2023-03-20T11:34:10;100756.50;;;18.68;57.04
12182;BME280;6154;51.550;12.138;2023-03-20T11:36:53;100770.13;;;18.76;56.77
12182;BME280;6154;51.550;12.138;2023-03-20T11:39:36;100757.94;;;18.72;56.00
12182;BME280;6154;51.550;12.138;2023-03-20T11:42:21;100767.25;;;18.57;56.13
12182;BME280;6154;51.550;12.138;2023-03-20T11:44:56;100770.69;;;18.48;55.82
12182;BME280;6154;51.550;12.138;2023-03-20T11:47:30;100764.84;;;18.43;56.34
12182;BME280;6154;51.550;12.138;2023-03-20T11:50:02;100757.91;;;18.40;56.45
12182;BME280;6154;51.550;12.138;2023-03-20T11:52:32;100757.31;;;18.36;56.42
12182;BME280;6154;51.550;12.138;2023-03-20T11:55:04;100753.78;;;18.36;56.43
12182;BME280;6154;51.550;12.138;2023-03-20T11:57:35;100754.66;;;18.36;56.44
12182;BME280;6154;51.550;12.138;2023-03-20T12:00:16;100751.12;;;18.36;56.49
12182;BME280;6154;51.550;12.138;2023-03-20T12:02:47;100745.03;;;18.34;56.63
12182;BME280;6154;51.550;12.138;2023-03-20T12:05:27;100745.41;;;18.29;56.62
12182;BME280;6154;51.550;12.138;2023-03-20T12:07:59;100746.25;;;18.30;57.01
12182;BME280;6154;51.550;12.138;2023-03-20T12:10:31;100739.19;;;18.29;56.82
12182;BME280;6154;51.550;12.138;2023-03-20T12:13:05;100729.31;;;18.29;56.84
12182;BME280;6154;51.550;12.138;2023-03-20T12:15:41;100723.34;;;18.37;56.97
12182;BME280;6154;51.550;12.138;2023-03-20T12:18:16;100722.81;;;18.43;57.11
12182;BME280;6154;51.550;12.138;2023-03-20T12:20:55;100725.13;;;18.48;57.34
12182;BME280;6154;51.550;12.138;2023-03-20T12:23:31;100717.53;;;18.53;57.58
12182;BME280;6154;51.550;12.138;2023-03-20T12:26:03;100706.56;;;18.56;57.33
12182;BME280;6154;51.550;12.138;2023-03-20T12:28:37;100710.94;;;18.57;57.66
12182;BME280;6154;51.550;12.138;2023-03-20T12:31:19;100704.87;;;18.55;57.62
12182;BME280;6154;51.550;12.138;2023-03-20T12:33:52;100707.28;;;18.58;57.28
12182;BME280;6154;51.550;12.138;2023-03-20T12:36:26;100704.41;;;18.50;57.66
12182;BME280;6154;51.550;12.138;2023-03-20T12:38:57;100698.75;;;18.53;57.91
12182;BME280;6154;51.550;12.138;2023-03-20T12:41:28;100700.38;;;18.55;57.81
12182;BME280;6154;51.550;12.138;2023-03-20T12:44:13;100701.94;;;18.58;57.87
12182;BME280;6154;51.550;12.138;2023-03-20T12:46:46;100699.09;;;18.59;57.85
12182;BME280;6154;51.550;12.138;2023-03-20T12:49:27;100702.16;;;18.66;57.97
12182;BME280;6154;51.550;12.138;2023-03-20T12:52:05;100698.00;;;18.62;57.92
12182;BME280;6154;51.550;12.138;2023-03-20T12:54:56;100693.59;;;18.72;58.13
12182;BME280;6154;51.550;12.138;2023-03-20T12:57:33;100689.13;;;18.82;57.83
12182;BME280;6154;51.550;12.138;2023-03-20T13:00:14;100690.78;;;18.94;57.81
12182;BME280;6154;51.550;12.138;2023-03-20T13:02:56;100682.81;;;19.14;58.42
12182;BME280;6154;51.550;12.138;2023-03-20T13:05:35;100669.50;;;19.33;58.31
12182;BME280;6154;51.550;12.138;2023-03-20T13:08:24;100671.19;;;19.55;57.98
12182;BME280;6154;51.550;12.138;2023-03-20T13:11:05;100661.78;;;19.70;57.60
12182;BME280;6154;51.550;12.138;2023-03-20T13:13:43;100660.09;;;19.79;57.14
12182;BME280;6154;51.550;12.138;2023-03-20T13:16:19;100650.66;;;19.94;57.17
12182;BME280;6154;51.550;12.138;2023-03-20T13:18:55;100653.94;;;20.17;57.06
12182;BME280;6154;51.550;12.138;2023-03-20T13:21:31;100642.47;;;20.44;57.30